sensor_id;sensor_type;location;lat;lon;timestamp;pressure;altitude;pressure_sealevel;temperature;humidity
43217;BME280;71549;42.686;23.300;2023-11-19T00:00:17;94657.09;;;20.47;30.84
43217;BME280;71549;42.686;23.300;2023-11-19T00:02:17;94542.72;;;19.80;30.83
43217;BME280;71549;42.686;23.300;2023-11-19T00:04:18;94564.78;;;19.98;31.04
43217;BME280;71549;42.686;23.300;2023-11-19T00:06:19;94645.44;;;20.43;31.09
43217;BME280;71549;42.686;23.300;2023-11-19T00:08:19;94651.59;;;20.44;31.46
43217;BME280;71549;42.686;23.300;2023-11-19T00:10:20;94556.59;;;19.82;31.01
43217;BME280;71549;42.686;23.300;2023-11-19T00:12:21;94542.56;;;19.76;30.74
43217;BME280;71549;42.686;23.300;2023-11-19T00:14:22;94495.69;;;19.53;30.90
43217;BME280;71549;42.686;23.300;2023-11-19T00:16:23;94480.44;;;19.44;31.29
43217;BME280;71549;42.686;23.300;2023-11-19T00:18:23;94534.84;;;19.75;30.68
43217;BME280;71549;42.686;23.300;2023-11-19T00:20:23;94581.72;;;19.98;31.19
43217;BME280;71549;42.686;23.300;2023-11-19T00:22:24;94623.78;;;20.27;31.11
43217;BME280;71549;42.686;23.300;2023-11-19T00:24:26;94630.19;;;20.35;31.18
43217;BME280;71549;42.686;23.300;2023-11-19T00:26:26;94579.72;;;20.07;31.28
43217;BME280;71549;42.686;23.300;2023-11-19T00:28:27;94641.28;;;20.34;31.24
43217;BME280;71549;42.686;23.300;2023-11-19T00:30:27;94624.56;;;20.28;31.50
43217;BME280;71549;42.686;23.300;2023-11-19T00:32:27;94584.81;;;19.88;31.45
43217;BME280;71549;42.686;23.300;2023-11-19T00:34:28;94646.41;;;20.39;30.80
43217;BME280;71549;42.686;23.300;2023-11-19T00:36:28;94574.84;;;19.89;30.75
43217;BME280;71549;42.686;23.300;2023-11-19T00:38:29;94565.16;;;19.96;30.77
43217;BME280;71549;42.686;23.300;2023-11-19T00:40:29;94628.69;;;20.25;30.94
43217;BME280;71549;42.686;23.300;2023-11-19T00:42:30;94615.13;;;20.22;30.48
43217;BME280;71549;42.686;23.300;2023-11-19T00:44:30;94482.75;;;19.34;30.67
43217;BME280;71549;42.686;23.300;2023-11-19T00:46:31;94652.47;;;20.36;31.05
43217;BME280;71549;42.686;23.300;2023-11-19T00:48:32;94626.09;;;20.17;30.91
43217;BME280;71549;42.686;23.300;2023-11-19T00:50:33;94629.94;;;20.28;30.87
43217;BME280;71549;42.686;23.300;2023-11-19T00:52:33;94643.50;;;20.32;30.99
43217;BME280;71549;42.686;23.300;2023-11-19T00:54:34;94540.91;;;19.63;30.67
43217;BME280;71549;42.686;23.300;2023-11-19T00:56:34;94650.69;;;20.40;31.01
43217;BME280;71549;42.686;23.300;2023-11-19T00:58:34;94655.84;;;20.45;30.95
43217;BME280;71549;42.686;23.300;2023-11-19T01:00:35;94534.00;;;19.62;30.86
43217;BME280;71549;42.686;23.300;2023-11-19T01:02:35;94547.19;;;19.67;31.22
43217;BME280;71549;42.686;23.300;2023-11-19T01:04:36;94628.13;;;20.20;30.90
43217;BME280;71549;42.686;23.300;2023-11-19T01:06:36;94617.19;;;20.04;31.40
43217;BME280;71549;42.686;23.300;2023-11-19T01:08:37;94667.16;;;20.38;30.85
43217;BME280;71549;42.686;23.300;2023-11-19T01:10:37;94643.50;;;20.32;30.72
43217;BME280;71549;42.686;23.300;2023-11-19T01:12:38;94626.88;;;20.17;30.67
43217;BME280;71549;42.686;23.300;2023-11-19T01:14:38;94659.63;;;20.32;31.00
43217;BME280;71549;42.686;23.300;2023-11-19T01:16:39;94624.53;;;20.16;30.63
43217;BME280;71549;42.686;23.300;2023-11-19T01:18:39;94669.50;;;20.40;30.70
43217;BME280;71549;42.686;23.300;2023-11-19T01:20:40;94622.06;;;20.11;31.16
43217;BME280;71549;42.686;23.300;2023-11-19T01:22:40;94489.56;;;19.31;30.80
43217;BME280;71549;42.686;23.300;2023-11-19T01:24:41;94494.41;;;19.38;30.63
43217;BME280;71549;42.686;23.300;2023-11-19T01:26:43;94630.19;;;20.35;30.36
43217;BME280;71549;42.686;23.300;2023-11-19T01:28:47;94644.19;;;20.41;30.82
43217;BME280;71549;42.686;23.300;2023-11-19T01:30:50;94667.19;;;20.51;30.83
43217;BME280;71549;42.686;23.300;2023-11-19T01:32:51;94640.03;;;20.31;31.05
43217;BME280;71549;42.686;23.300;2023-11-19T01:34:51;94616.34;;;20.12;30.88
43217;BME280;71549;42.686;23.300;2023-11-19T01:36:52;94571.00;;;19.77;30.95
43217;BME280;71549;42.686;23.300;2023-11-19T01:38:53;94635.81;;;20.09;31.13
43217;BME280;71549;42.686;23.300;2023-11-19T01:40:57;94650.16;;;20.13;31.24
43217;BME280;71549;42.686;23.300;2023-11-19T01:42:57;94604.66;;;19.75;30.94
43217;BME280;71549;42.686;23.300;2023-11-19T01:44:58;94608.00;;;19.93;31.09
43217;BME280;71549;42.686;23.300;2023-11-19T01:46:59;94559.72;;;19.63;30.88
43217;BME280;71549;42.686;23.300;2023-11-19T01:49:01;94606.22;;;19.97;30.81
43217;BME280;71549;42.686;23.300;2023-11-19T01:51:03;94605.09;;;19.98;30.98
43217;BME280;71549;42.686;23.300;2023-11-19T01:53:04;94680.03;;;20.45;30.75
43217;BME280;71549;42.686;23.300;2023-11-19T01:55:05;94682.94;;;20.40;30.92
43217;BME280;71549;42.686;23.300;2023-11-19T01:57:09;94680.00;;;20.33;31.16
43217;BME280;71549;42.686;23.300;2023-11-19T01:59:10;94642.09;;;20.13;31.00
43217;BME280;71549;42.686;23.300;2023-11-19T02:01:13;94661.72;;;20.26;30.93
43217;BME280;71549;42.686;23.300;2023-11-19T02:03:14;94699.09;;;20.40;31.23
43217;BME280;71549;42.686;23.300;2023-11-19T02:05:15;94591.91;;;19.72;30.44
43217;BME280;71549;42.686;23.300;2023-11-19T02:07:16;94605.03;;;19.85;30.83
43217;BME280;71549;42.686;23.300;2023-11-19T02:09:17;94573.59;;;19.65;30.30
43217;BME280;71549;42.686;23.300;2023-11-19T02:11:19;94591.91;;;19.72;30.76
43217;BME280;71549;42.686;23.300;2023-11-19T02:13:20;94598.31;;;19.79;30.72
43217;BME280;71549;42.686;23.300;2023-11-19T02:15:20;94651.41;;;20.16;30.98
43217;BME280;71549;42.686;23.300;2023-11-19T02:17:28;94655.44;;;20.22;30.69
43217;BME280;71549;42.686;23.300;2023-11-19T02:19:31;94622.66;;;19.95;31.09
43217;BME280;71549;42.686;23.300;2023-11-19T02:21:31;94677.31;;;20.33;30.97
43217;BME280;71549;42.686;23.300;2023-11-19T02:23:32;94675.88;;;20.35;30.72
43217;BME280;71549;42.686;23.300;2023-11-19T02:25:33;94667.25;;;20.30;30.71
43217;BME280;71549;42.686;23.300;2023-11-19T02:29:38;94650.84;;;20.22;30.82
43217;BME280;71549;42.686;23.300;2023-11-19T02:31:39;94678.69;;;20.39;30.96
43217;BME280;71549;42.686;23.300;2023-11-19T02:33:40;94630.69;;;20.16;30.85
43217;BME280;71549;42.686;23.300;2023-11-19T02:35:40;94638.78;;;20.28;30.95
43217;BME280;71549;42.686;23.300;2023-11-19T02:37:41;94654.63;;;20.42;30.86
43217;BME280;71549;42.686;23.300;2023-11-19T02:39:41;94582.50;;;19.99;30.50
43217;BME280;71549;42.686;23.300;2023-11-19T02:41:42;94571.78;;;19.78;30.77
43217;BME280;71549;42.686;23.300;2023-11-19T02:43:43;94614.19;;;20.05;30.68
43217;BME280;71549;42.686;23.300;2023-11-19T02:45:43;94596.50;;;20.04;30.87
43217;BME280;71549;42.686;23.300;2023-11-19T02:47:45;94598.16;;;19.97;30.44
43217;BME280;71549;42.686;23.300;2023-11-19T02:49:46;94608.72;;;19.81;31.13
43217;BME280;71549;42.686;23.300;2023-11-19T02:51:46;94671.94;;;20.33;30.50
43217;BME280;71549;42.686;23.300;2023-11-19T02:53:48;94639.41;;;20.13;30.79
43217;BME280;71549;42.686;23.300;2023-11-19T02:55:48;94568.53;;;19.72;30.58
43217;BME280;71549;42.686;23.300;2023-11-19T02:57:51;94672.06;;;20.36;30.63
43217;BME280;71549;42.686;23.300;2023-11-19T02:59:53;94504.31;;;19.25;31.12
43217;BME280;71549;42.686;23.300;2023-11-19T03:01:57;94663.22;;;20.36;30.69
43217;BME280;71549;42.686;23.300;2023-11-19T03:03:57;94670.50;;;20.35;31.14
43217;BME280;71549;42.686;23.300;2023-11-19T03:05:58;94617.56;;;20.02;30.88
43217;BME280;71549;42.686;23.300;2023-11-19T03:07:59;94630.63;;;20.04;30.78
43217;BME280;71549;42.686;23.300;2023-11-19T03:10:00;94633.09;;;19.97;30.95
43217;BME280;71549;42.686;23.300;2023-11-19T03:12:01;94663.91;;;20.12;30.48
43217;BME280;71549;42.686;23.300;2023-11-19T03:14:01;94687.97;;;20.29;30.66
43217;BME280;71549;42.686;23.300;2023-11-19T03:16:03;94696.94;;;20.33;30.75
43217;BME280;71549;42.686;23.300;2023-11-19T03:18:04;94670.66;;;20.18;30.80
43217;BME280;71549;42.686;23.300;2023-11-19T03:20:09;94652.47;;;20.02;30.53
43217;BME280;71549;42.686;23.300;2023-11-19T03:22:10;94691.09;;;20.31;30.61
43217;BME280;71549;42.686;23.300;2023-11-19T03:24:14;94618.00;;;19.83;30.90
43217;BME280;71549;42.686;23.300;2023-11-19T03:26:15;94587.47;;;19.67;30.88
43217;BME280;71549;42.686;23.300;2023-11-19T03:28:16;94507.03;;;19.16;30.39
43217;BME280;71549;42.686;23.300;2023-11-19T03:30:16;94466.88;;;18.86;30.46
43217;BME280;71549;42.686;23.300;2023-11-19T03:32:17;94510.31;;;19.22;30.66
43217;BME280;71549;42.686;23.300;2023-11-19T03:34:18;94673.72;;;20.28;30.75
43217;BME280;71549;42.686;23.300;2023-11-19T03:36:19;94684.16;;;20.30;30.66
43217;BME280;71549;42.686;23.300;2023-11-19T03:38:19;94556.72;;;19.43;30.96
43217;BME280;71549;42.686;23.300;2023-11-19T03:40:19;94673.47;;;20.21;30.17
43217;BME280;71549;42.686;23.300;2023-11-19T03:42:20;94667.38;;;20.12;30.88
43217;BME280;71549;42.686;23.300;2023-11-19T03:44:21;94690.19;;;20.27;30.56
43217;BME280;71549;42.686;23.300;2023-11-19T03:46:22;94609.28;;;19.65;30.27
43217;BME280;71549;42.686;23.300;2023-11-19T03:48:22;94646.00;;;19.82;31.02
43217;BME280;71549;42.686;23.300;2023-11-19T03:50:23;94661.59;;;19.89;30.40
43217;BME280;71549;42.686;23.300;2023-11-19T03:52:23;94685.03;;;20.01;30.78
43217;BME280;71549;42.686;23.300;2023-11-19T03:54:24;94733.84;;;20.24;30.83
43217;BME280;71549;42.686;23.300;2023-11-19T03:56:24;94683.28;;;20.05;30.77
43217;BME280;71549;42.686;23.300;2023-11-19T03:58:25;94681.72;;;20.16;30.71
43217;BME280;71549;42.686;23.300;2023-11-19T04:00:25;94648.00;;;19.85;30.58
43217;BME280;71549;42.686;23.300;2023-11-19T04:02:25;94635.78;;;19.76;30.66
43217;BME280;71549;42.686;23.300;2023-11-19T04:04:29;94641.47;;;19.74;30.32
43217;BME280;71549;42.686;23.300;2023-11-19T04:06:29;94677.91;;;20.05;30.01
43217;BME280;71549;42.686;23.300;2023-11-19T04:08:30;94725.25;;;20.31;30.77
43217;BME280;71549;42.686;23.300;2023-11-19T04:10:30;94739.53;;;20.22;30.58
43217;BME280;71549;42.686;23.300;2023-11-19T04:12:31;94746.44;;;20.32;30.58
43217;BME280;71549;42.686;23.300;2023-11-19T04:14:31;94693.75;;;19.98;30.57
43217;BME280;71549;42.686;23.300;2023-11-19T04:16:32;94746.63;;;20.27;30.52
43217;BME280;71549;42.686;23.300;2023-11-19T04:18:32;94615.34;;;19.33;30.19
43217;BME280;71549;42.686;23.300;2023-11-19T04:20:32;94610.97;;;19.28;30.41
43217;BME280;71549;42.686;23.300;2023-11-19T04:22:33;94697.28;;;19.90;30.38
43217;BME280;71549;42.686;23.300;2023-11-19T04:24:33;94666.47;;;19.66;30.39
43217;BME280;71549;42.686;23.300;2023-11-19T04:26:34;94749.78;;;20.29;30.57
43217;BME280;71549;42.686;23.300;2023-11-19T04:28:34;94735.47;;;20.16;30.46
43217;BME280;71549;42.686;23.300;2023-11-19T04:30:35;94656.59;;;19.79;30.37
43217;BME280;71549;42.686;23.300;2023-11-19T04:32:35;94703.63;;;20.06;30.27
43217;BME280;71549;42.686;23.300;2023-11-19T04:34:37;94748.94;;;20.37;30.18
43217;BME280;71549;42.686;23.300;2023-11-19T04:36:37;94721.97;;;20.04;30.49
43217;BME280;71549;42.686;23.300;2023-11-19T04:38:38;94649.44;;;19.62;30.24
43217;BME280;71549;42.686;23.300;2023-11-19T04:40:41;94760.31;;;20.34;30.69
43217;BME280;71549;42.686;23.300;2023-11-19T04:42:42;94751.56;;;20.25;30.69
43217;BME280;71549;42.686;23.300;2023-11-19T04:44:43;94754.81;;;20.31;30.31
43217;BME280;71549;42.686;23.300;2023-11-19T04:46:44;94732.53;;;20.09;30.65
43217;BME280;71549;42.686;23.300;2023-11-19T04:48:44;94664.09;;;19.64;30.65
43217;BME280;71549;42.686;23.300;2023-11-19T04:50:45;94718.59;;;19.95;30.91
43217;BME280;71549;42.686;23.300;2023-11-19T04:52:45;94611.75;;;19.28;30.73
43217;BME280;71549;42.686;23.300;2023-11-19T04:54:46;94661.38;;;19.73;30.44
43217;BME280;71549;42.686;23.300;2023-11-19T04:56:46;94767.94;;;20.32;30.73
43217;BME280;71549;42.686;23.300;2023-11-19T04:58:49;94691.53;;;19.79;30.15
43217;BME280;71549;42.686;23.300;2023-11-19T05:00:50;94761.91;;;20.35;30.48
43217;BME280;71549;42.686;23.300;2023-11-19T05:02:51;94682.00;;;19.81;29.93
43217;BME280;71549;42.686;23.300;2023-11-19T05:04:51;94675.41;;;19.79;30.31
43217;BME280;71549;42.686;23.300;2023-11-19T05:06:52;94777.28;;;20.47;30.41
43217;BME280;71549;42.686;23.300;2023-11-19T05:08:53;94780.72;;;20.35;30.20
43217;BME280;71549;42.686;23.300;2023-11-19T05:10:54;94741.84;;;20.12;30.25
43217;BME280;71549;42.686;23.300;2023-11-19T05:12:54;94793.09;;;20.48;30.08
43217;BME280;71549;42.686;23.300;2023-11-19T05:14:56;94727.31;;;20.13;30.23
43217;BME280;71549;42.686;23.300;2023-11-19T05:16:57;94787.94;;;20.43;30.33
43217;BME280;71549;42.686;23.300;2023-11-19T05:18:58;94755.09;;;20.17;30.56
43217;BME280;71549;42.686;23.300;2023-11-19T05:20:58;94745.91;;;20.18;30.72
43217;BME280;71549;42.686;23.300;2023-11-19T05:22:58;94781.88;;;20.46;30.43
43217;BME280;71549;42.686;23.300;2023-11-19T05:25:00;94663.59;;;19.71;30.47
43217;BME280;71549;42.686;23.300;2023-11-19T05:27:03;94785.25;;;20.43;30.52
43217;BME280;71549;42.686;23.300;2023-11-19T05:29:03;94713.59;;;20.05;30.41
43217;BME280;71549;42.686;23.300;2023-11-19T05:31:05;94775.41;;;20.47;30.33
43217;BME280;71549;42.686;23.300;2023-11-19T05:33:07;94777.03;;;20.40;30.32
43217;BME280;71549;42.686;23.300;2023-11-19T05:35:08;94772.19;;;20.33;30.51
43217;BME280;71549;42.686;23.300;2023-11-19T05:37:08;94775.81;;;20.37;30.38
43217;BME280;71549;42.686;23.300;2023-11-19T05:39:10;94706.72;;;19.75;30.82
43217;BME280;71549;42.686;23.300;2023-11-19T05:41:11;94678.84;;;19.58;30.80
43217;BME280;71549;42.686;23.300;2023-11-19T05:43:12;94799.34;;;20.19;30.41
43217;BME280;71549;42.686;23.300;2023-11-19T05:45:12;94757.50;;;19.89;30.65
43217;BME280;71549;42.686;23.300;2023-11-19T05:47:13;94762.16;;;20.00;30.58
43217;BME280;71549;42.686;23.300;2023-11-19T05:49:13;94796.72;;;20.32;30.40
43217;BME280;71549;42.686;23.300;2023-11-19T05:51:14;94733.72;;;19.99;30.29
43217;BME280;71549;42.686;23.300;2023-11-19T05:53:17;94790.81;;;20.38;30.40
43217;BME280;71549;42.686;23.300;2023-11-19T05:55:17;94643.25;;;19.40;30.26
43217;BME280;71549;42.686;23.300;2023-11-19T05:57:19;94709.25;;;19.71;30.47
43217;BME280;71549;42.686;23.300;2023-11-19T05:59:25;94707.38;;;19.72;30.22
43217;BME280;71549;42.686;23.300;2023-11-19T06:01:26;94774.75;;;20.09;30.21
43217;BME280;71549;42.686;23.300;2023-11-19T06:03:27;94802.72;;;20.28;30.21
43217;BME280;71549;42.686;23.300;2023-11-19T06:05:28;94817.75;;;20.30;30.14
43217;BME280;71549;42.686;23.300;2023-11-19T06:07:28;94814.28;;;20.29;30.56
43217;BME280;71549;42.686;23.300;2023-11-19T06:09:28;94686.50;;;19.47;30.32
43217;BME280;71549;42.686;23.300;2023-11-19T06:11:29;94699.19;;;19.59;30.25
43217;BME280;71549;42.686;23.300;2023-11-19T06:13:29;94742.56;;;19.79;30.23
43217;BME280;71549;42.686;23.300;2023-11-19T06:15:33;94628.97;;;18.98;30.44
43217;BME280;71549;42.686;23.300;2023-11-19T06:17:33;94810.94;;;20.32;30.29
43217;BME280;71549;42.686;23.300;2023-11-19T06:19:34;94820.25;;;20.35;30.21
43217;BME280;71549;42.686;23.300;2023-11-19T06:21:34;94826.06;;;20.37;30.43
43217;BME280;71549;42.686;23.300;2023-11-19T06:23:37;94826.06;;;20.37;30.36
43217;BME280;71549;42.686;23.300;2023-11-19T06:25:37;94729.25;;;19.82;30.27
43217;BME280;71549;42.686;23.300;2023-11-19T06:27:38;94765.97;;;19.99;30.38
43217;BME280;71549;42.686;23.300;2023-11-19T06:29:39;94768.72;;;19.91;30.38
43217;BME280;71549;42.686;23.300;2023-11-19T06:31:41;94734.84;;;19.68;30.32
43217;BME280;71549;42.686;23.300;2023-11-19T06:33:42;94782.81;;;20.09;30.26
43217;BME280;71549;42.686;23.300;2023-11-19T06:35:43;94798.75;;;20.35;30.11
43217;BME280;71549;42.686;23.300;2023-11-19T06:37:43;94791.34;;;20.11;30.43
43217;BME280;71549;42.686;23.300;2023-11-19T06:39:44;94637.13;;;19.10;30.34
43217;BME280;71549;42.686;23.300;2023-11-19T06:41:45;94743.69;;;19.69;30.21
43217;BME280;71549;42.686;23.300;2023-11-19T06:43:46;94826.59;;;20.30;30.38
43217;BME280;71549;42.686;23.300;2023-11-19T06:45:47;94728.09;;;19.62;30.31
43217;BME280;71549;42.686;23.300;2023-11-19T06:47:48;94699.72;;;19.53;30.14
43217;BME280;71549;42.686;23.300;2023-11-19T06:49:48;94758.50;;;19.84;30.17
43217;BME280;71549;42.686;23.300;2023-11-19T06:51:48;94628.03;;;19.02;30.41
43217;BME280;71549;42.686;23.300;2023-11-19T06:53:49;94628.94;;;19.06;29.93
43217;BME280;71549;42.686;23.300;2023-11-19T06:55:49;94642.78;;;19.17;30.43
43217;BME280;71549;42.686;23.300;2023-11-19T06:57:50;94764.78;;;20.09;30.16
43217;BME280;71549;42.686;23.300;2023-11-19T06:59:50;94658.91;;;19.38;30.31
43217;BME280;71549;42.686;23.300;2023-11-19T07:01:51;94821.69;;;20.32;30.45
43217;BME280;71549;42.686;23.300;2023-11-19T07:03:51;94831.97;;;20.30;30.36
43217;BME280;71549;42.686;23.300;2023-11-19T07:05:51;94694.56;;;19.47;30.12
43217;BME280;71549;42.686;23.300;2023-11-19T07:07:52;94837.81;;;20.32;30.12
43217;BME280;71549;42.686;23.300;2023-11-19T07:09:52;94665.84;;;19.10;30.51
43217;BME280;71549;42.686;23.300;2023-11-19T07:11:53;94813.22;;;20.00;30.43
43217;BME280;71549;42.686;23.300;2023-11-19T07:13:53;94841.09;;;20.17;30.22
43217;BME280;71549;42.686;23.300;2023-11-19T07:15:56;94836.97;;;20.19;30.46
43217;BME280;71549;42.686;23.300;2023-11-19T07:17:56;94679.38;;;19.22;29.81
43217;BME280;71549;42.686;23.300;2023-11-19T07:19:59;94825.97;;;20.33;30.27
43217;BME280;71549;42.686;23.300;2023-11-19T07:22:00;94672.53;;;19.33;30.39
43217;BME280;71549;42.686;23.300;2023-11-19T07:24:00;94813.31;;;20.13;29.94
43217;BME280;71549;42.686;23.300;2023-11-19T07:26:06;94815.16;;;20.21;30.16
43217;BME280;71549;42.686;23.300;2023-11-19T07:28:09;94808.03;;;20.16;30.16
43217;BME280;71549;42.686;23.300;2023-11-19T07:30:11;94841.28;;;20.33;30.22
43217;BME280;71549;42.686;23.300;2023-11-19T07:32:12;94839.72;;;20.32;30.25
43217;BME280;71549;42.686;23.300;2023-11-19T07:34:13;94802.19;;;19.93;30.16
43217;BME280;71549;42.686;23.300;2023-11-19T07:36:14;94729.47;;;19.39;30.01
43217;BME280;71549;42.686;23.300;2023-11-19T07:38:16;94767.56;;;19.71;30.20
43217;BME280;71549;42.686;23.300;2023-11-19T07:40:16;94825.94;;;20.12;29.87
43217;BME280;71549;42.686;23.300;2023-11-19T07:42:17;94760.09;;;19.76;30.04
43217;BME280;71549;42.686;23.300;2023-11-19T07:44:17;94789.34;;;19.78;30.16
43217;BME280;71549;42.686;23.300;2023-11-19T07:46:17;94837.94;;;20.15;30.08
43217;BME280;71549;42.686;23.300;2023-11-19T07:48:21;94721.84;;;19.50;29.79
43217;BME280;71549;42.686;23.300;2023-11-19T07:50:23;94832.66;;;20.27;29.99
43217;BME280;71549;42.686;23.300;2023-11-19T07:52:25;94832.50;;;20.23;30.03
43217;BME280;71549;42.686;23.300;2023-11-19T07:54:26;94816.31;;;20.11;29.56
43217;BME280;71549;42.686;23.300;2023-11-19T07:56:26;94807.50;;;20.02;29.93
43217;BME280;71549;42.686;23.300;2023-11-19T07:58:27;94793.66;;;19.91;30.00
43217;BME280;71549;42.686;23.300;2023-11-19T08:00:28;94797.78;;;19.89;30.10
43217;BME280;71549;42.686;23.300;2023-11-19T08:02:28;94744.13;;;19.50;30.02
43217;BME280;71549;42.686;23.300;2023-11-19T08:04:29;94814.19;;;19.96;30.02
43217;BME280;71549;42.686;23.300;2023-11-19T08:06:29;94765.06;;;19.57;29.87
43217;BME280;71549;42.686;23.300;2023-11-19T08:08:30;94863.53;;;20.21;29.85
43217;BME280;71549;42.686;23.300;2023-11-19T08:10:32;94807.09;;;19.91;30.03
43217;BME280;71549;42.686;23.300;2023-11-19T08:12:33;94851.78;;;20.25;29.92
43217;BME280;71549;42.686;23.300;2023-11-19T08:14:35;94791.56;;;19.76;30.30
43217;BME280;71549;42.686;23.300;2023-11-19T08:16:39;94882.78;;;20.23;30.22
43217;BME280;71549;42.686;23.300;2023-11-19T08:18:42;94571.25;;;18.15;29.80
43217;BME280;71549;42.686;23.300;2023-11-19T08:20:45;94866.44;;;20.07;29.94
43217;BME280;71549;42.686;23.300;2023-11-19T08:22:45;94886.06;;;20.28;30.03
43217;BME280;71549;42.686;23.300;2023-11-19T08:24:46;94890.13;;;20.35;29.79
43217;BME280;71549;42.686;23.300;2023-11-19T08:26:46;94894.03;;;20.46;29.77
43217;BME280;71549;42.686;23.300;2023-11-19T08:28:47;94817.66;;;19.96;29.84
43217;BME280;71549;42.686;23.300;2023-11-19T08:30:48;94862.97;;;20.06;29.65
43217;BME280;71549;42.686;23.300;2023-11-19T08:32:49;94872.22;;;20.18;29.93
43217;BME280;71549;42.686;23.300;2023-11-19T08:34:49;94820.69;;;19.95;29.65
43217;BME280;71549;42.686;23.300;2023-11-19T08:36:50;94836.00;;;19.94;29.58
43217;BME280;71549;42.686;23.300;2023-11-19T08:38:53;94848.72;;;20.06;29.48
43217;BME280;71549;42.686;23.300;2023-11-19T08:40:54;94907.84;;;20.36;29.67
43217;BME280;71549;42.686;23.300;2023-11-19T08:42:59;94745.94;;;19.28;29.56
43217;BME280;71549;42.686;23.300;2023-11-19T08:45:00;94857.72;;;20.10;29.78
43217;BME280;71549;42.686;23.300;2023-11-19T08:47:00;94856.94;;;20.10;30.07
43217;BME280;71549;42.686;23.300;2023-11-19T08:49:01;94825.75;;;19.87;29.73
43217;BME280;71549;42.686;23.300;2023-11-19T08:51:01;94813.59;;;19.90;29.45
43217;BME280;71549;42.686;23.300;2023-11-19T08:53:01;94822.69;;;19.98;29.59
43217;BME280;71549;42.686;23.300;2023-11-19T08:55:02;94906.81;;;20.49;29.19
43217;BME280;71549;42.686;23.300;2023-11-19T08:57:04;94909.03;;;20.47;29.60
43217;BME280;71549;42.686;23.300;2023-11-19T08:59:07;94791.25;;;19.68;29.37
43217;BME280;71549;42.686;23.300;2023-11-19T09:01:08;94658.69;;;18.75;29.56
43217;BME280;71549;42.686;23.300;2023-11-19T09:03:10;94899.56;;;20.50;29.43
43217;BME280;71549;42.686;23.300;2023-11-19T09:05:10;94708.25;;;19.25;29.60
43217;BME280;71549;42.686;23.300;2023-11-19T09:07:11;94891.03;;;20.47;29.57
43217;BME280;71549;42.686;23.300;2023-11-19T09:09:11;94869.69;;;20.42;29.47
43217;BME280;71549;42.686;23.300;2023-11-19T09:11:12;94887.66;;;20.51;29.51
43217;BME280;71549;42.686;23.300;2023-11-19T09:13:12;94860.31;;;20.27;29.83
43217;BME280;71549;42.686;23.300;2023-11-19T09:15:12;94879.97;;;20.40;29.59
43217;BME280;71549;42.686;23.300;2023-11-19T09:17:13;94737.81;;;19.46;29.72
43217;BME280;71549;42.686;23.300;2023-11-19T09:19:14;94836.69;;;20.12;29.73
43217;BME280;71549;42.686;23.300;2023-11-19T09:21:15;94897.34;;;20.43;29.76
43217;BME280;71549;42.686;23.300;2023-11-19T09:23:15;94892.19;;;20.38;29.77
43217;BME280;71549;42.686;23.300;2023-11-19T09:25:16;94892.81;;;20.35;29.86
43217;BME280;71549;42.686;23.300;2023-11-19T09:27:17;94842.78;;;20.00;29.71
43217;BME280;71549;42.686;23.300;2023-11-19T09:29:17;94864.69;;;20.11;29.58
43217;BME280;71549;42.686;23.300;2023-11-19T09:31:18;94905.34;;;20.31;30.07
43217;BME280;71549;42.686;23.300;2023-11-19T09:33:18;94887.78;;;20.33;29.71
43217;BME280;71549;42.686;23.300;2023-11-19T09:35:21;94886.34;;;20.36;29.72
43217;BME280;71549;42.686;23.300;2023-11-19T09:37:21;94788.22;;;19.79;29.42
43217;BME280;71549;42.686;23.300;2023-11-19T09:39:22;94863.25;;;20.35;29.73
43217;BME280;71549;42.686;23.300;2023-11-19T09:41:23;94785.88;;;19.68;29.32
43217;BME280;71549;42.686;23.300;2023-11-19T09:43:27;94865.22;;;20.25;29.64
43217;BME280;71549;42.686;23.300;2023-11-19T09:45:32;94772.13;;;19.70;29.45
43217;BME280;71549;42.686;23.300;2023-11-19T09:47:34;94862.31;;;20.31;29.85
43217;BME280;71549;42.686;23.300;2023-11-19T09:49:35;94787.19;;;19.92;29.33
43217;BME280;71549;42.686;23.300;2023-11-19T09:51:36;94750.28;;;19.80;29.63
43217;BME280;71549;42.686;23.300;2023-11-19T09:53:38;94832.97;;;20.46;29.06
43217;BME280;71549;42.686;23.300;2023-11-19T09:55:38;94830.59;;;20.45;29.25
43217;BME280;71549;42.686;23.300;2023-11-19T09:57:39;94826.28;;;20.53;28.97
43217;BME280;71549;42.686;23.300;2023-11-19T09:59:41;94754.97;;;19.92;29.31
43217;BME280;71549;42.686;23.300;2023-11-19T10:01:42;94685.66;;;19.56;29.09
43217;BME280;71549;42.686;23.300;2023-11-19T10:03:46;94829.75;;;20.53;29.19
43217;BME280;71549;42.686;23.300;2023-11-19T10:05:47;94696.72;;;19.54;29.18
43217;BME280;71549;42.686;23.300;2023-11-19T10:07:48;94700.72;;;19.69;29.28
43217;BME280;71549;42.686;23.300;2023-11-19T10:09:50;94691.72;;;19.74;29.15
43217;BME280;71549;42.686;23.300;2023-11-19T10:11:51;94736.19;;;19.83;29.49
43217;BME280;71549;42.686;23.300;2023-11-19T10:13:53;94804.03;;;20.22;29.47
43217;BME280;71549;42.686;23.300;2023-11-19T10:15:55;94822.59;;;20.36;29.81
43217;BME280;71549;42.686;23.300;2023-11-19T10:17:57;94831.34;;;20.54;28.96
43217;BME280;71549;42.686;23.300;2023-11-19T10:19:58;94750.75;;;20.03;29.16
43217;BME280;71549;42.686;23.300;2023-11-19T10:22:04;94751.28;;;19.97;29.29
43217;BME280;71549;42.686;23.300;2023-11-19T10:24:05;94822.59;;;20.36;29.12
43217;BME280;71549;42.686;23.300;2023-11-19T10:26:06;94844.59;;;20.59;29.11
43217;BME280;71549;42.686;23.300;2023-11-19T10:28:07;94699.41;;;19.54;29.52
43217;BME280;71549;42.686;23.300;2023-11-19T10:30:08;94728.47;;;19.82;29.39
43217;BME280;71549;42.686;23.300;2023-11-19T10:32:12;94785.97;;;20.32;29.17
43217;BME280;71549;42.686;23.300;2023-11-19T10:34:24;94689.50;;;19.67;29.31